createdAt,value
2023-02-02T00:01:21.732Z,3.14
2023-02-02T00:03:50.646Z,3.07
2023-02-02T00:06:18.413Z,3.19
2023-02-02T00:08:46.125Z,3.12
2023-02-02T00:11:13.937Z,3.09
2023-02-02T00:13:41.566Z,3.09
2023-02-02T00:16:37.809Z,3.04
2023-02-02T00:19:08.195Z,3.15
2023-02-02T00:21:35.765Z,3.05
2023-02-02T00:24:03.420Z,3.01
2023-02-02T00:26:31.115Z,3.09
2023-02-02T00:28:58.772Z,2.94
2023-02-02T00:31:26.480Z,3.00
2023-02-02T00:33:55.535Z,2.96
2023-02-02T00:36:23.246Z,2.94
2023-02-02T00:38:51.268Z,2.99
2023-02-02T00:41:18.720Z,2.93
2023-02-02T00:43:46.683Z,3.00
2023-02-02T00:46:15.198Z,3.00
2023-02-02T00:48:42.683Z,3.09
2023-02-02T00:51:11.477Z,3.03
2023-02-02T00:53:38.947Z,2.97
2023-02-02T00:56:06.763Z,3.09
2023-02-02T00:58:34.458Z,3.06
2023-02-02T01:01:02.371Z,3.06
2023-02-02T01:03:30.055Z,3.19
2023-02-02T01:05:57.585Z,3.10
2023-02-02T01:08:26.430Z,3.15
2023-02-02T01:10:53.894Z,3.15
2023-02-02T01:13:21.546Z,3.10
2023-02-02T01:15:48.989Z,3.10
2023-02-02T01:18:16.537Z,3.11
2023-02-02T01:20:43.992Z,3.14
2023-02-02T01:23:11.473Z,3.23
2023-02-02T01:25:40.241Z,3.28
2023-02-02T01:28:07.719Z,3.16
2023-02-02T01:30:35.237Z,3.24
2023-02-02T01:33:03.755Z,3.23
2023-02-02T01:35:31.241Z,3.20
2023-02-02T01:37:58.703Z,3.45
2023-02-02T01:40:26.173Z,3.50
2023-02-02T01:42:55.369Z,3.33
2023-02-02T01:45:26.744Z,3.29
2023-02-02T01:47:57.098Z,3.32
2023-02-02T01:50:27.334Z,3.28
2023-02-02T01:52:56.388Z,3.24
2023-02-02T01:55:25.379Z,3.26
2023-02-02T01:57:56.977Z,3.32
2023-02-02T02:00:27.029Z,3.29
2023-02-02T02:02:57.158Z,3.20
2023-02-02T02:05:28.776Z,3.28
2023-02-02T02:07:59.602Z,3.21
2023-02-02T02:10:27.075Z,3.38
2023-02-02T02:12:55.841Z,3.33
2023-02-02T02:15:41.195Z,3.36
2023-02-02T02:18:24.659Z,3.20
2023-02-02T02:21:38.491Z,3.12
2023-02-02T02:24:50.270Z,3.13
2023-02-02T02:27:55.017Z,3.08
2023-02-02T02:30:39.594Z,3.07
2023-02-02T02:33:11.759Z,3.12
2023-02-02T02:35:43.313Z,3.13
2023-02-02T02:38:15.067Z,3.15
2023-02-02T02:40:46.725Z,3.15
2023-02-02T02:43:17.526Z,3.09
2023-02-02T02:45:45.845Z,3.17
2023-02-02T02:48:14.707Z,3.06
2023-02-02T02:50:42.200Z,3.09
2023-02-02T02:53:12.950Z,3.06
2023-02-02T02:55:45.677Z,3.19
2023-02-02T02:58:15.472Z,3.11
2023-02-02T03:00:57.536Z,3.14
2023-02-02T03:03:38.943Z,3.22
2023-02-02T03:06:11.593Z,3.15
2023-02-02T03:08:41.672Z,3.18
2023-02-02T03:11:10.665Z,3.22
2023-02-02T03:13:38.178Z,3.16
2023-02-02T03:16:05.980Z,3.21
2023-02-02T03:18:34.935Z,3.26
2023-02-02T03:21:02.501Z,3.21
2023-02-02T03:23:30.031Z,3.12
2023-02-02T03:25:57.513Z,3.15
2023-02-02T03:28:25.394Z,3.23
2023-02-02T03:30:54.901Z,3.39
2023-02-02T03:33:22.642Z,3.32
2023-02-02T03:35:51.582Z,3.04
2023-02-02T03:38:19.127Z,3.06
2023-02-02T03:40:46.595Z,3.06
2023-02-02T03:43:14.085Z,3.12
2023-02-02T03:45:41.616Z,3.08
2023-02-02T03:48:09.173Z,2.96
2023-02-02T03:50:37.977Z,3.16
2023-02-02T03:53:06.756Z,3.04
2023-02-02T03:58:02.597Z,3.25
2023-02-02T04:00:30.096Z,3.33
2023-02-02T04:02:57.609Z,3.34
2023-02-02T04:05:25.675Z,3.31
2023-02-02T04:07:53.353Z,3.21
2023-02-02T04:10:22.255Z,3.32
2023-02-02T04:12:49.717Z,3.22
2023-02-02T04:15:17.342Z,3.16
2023-02-02T04:17:44.857Z,3.07
2023-02-02T04:20:13.093Z,3.01
2023-02-02T04:22:40.596Z,3.05
2023-02-02T04:25:08.831Z,3.11
2023-02-02T04:27:37.587Z,3.13
2023-02-02T04:30:05.860Z,3.15
2023-02-02T04:32:33.525Z,3.24
2023-02-02T04:35:00.997Z,3.17
2023-02-02T04:37:28.521Z,3.15
2023-02-02T04:39:56.041Z,3.17
2023-02-02T04:42:23.512Z,3.30
2023-02-02T04:44:52.289Z,3.09
2023-02-02T04:47:19.799Z,3.13
2023-02-02T04:49:47.301Z,3.13
2023-02-02T04:52:14.807Z,3.19
2023-02-02T04:54:42.359Z,3.12
2023-02-02T04:57:09.901Z,3.21
2023-02-02T04:59:37.387Z,3.15
2023-02-02T05:02:06.287Z,3.20
2023-02-02T05:04:33.821Z,3.31
2023-02-02T05:07:01.326Z,3.32
2023-02-02T05:09:28.838Z,3.32
2023-02-02T05:11:56.361Z,3.26
2023-02-02T05:14:23.849Z,3.26
2023-02-02T05:16:51.399Z,3.33
2023-02-02T05:19:20.208Z,3.35
2023-02-02T05:21:51.235Z,3.32
2023-02-02T05:24:18.944Z,3.40
2023-02-02T05:26:46.525Z,3.36
2023-02-02T05:29:14.031Z,3.39
2023-02-02T05:31:41.522Z,3.34
2023-02-02T05:34:11.445Z,3.42
2023-02-02T05:36:40.317Z,3.26
2023-02-02T05:39:07.788Z,3.32
2023-02-02T05:41:35.245Z,3.36
2023-02-02T05:44:02.860Z,3.42
2023-02-02T05:46:31.064Z,3.35
2023-02-02T05:48:58.849Z,3.36
2023-02-02T05:51:28.543Z,3.39
2023-02-02T05:53:57.306Z,3.28
2023-02-02T05:56:24.791Z,3.23
2023-02-02T05:58:52.249Z,3.24
2023-02-02T06:01:21.329Z,3.21
2023-02-02T06:03:49.175Z,3.21
2023-02-02T06:06:16.715Z,3.34
2023-02-02T06:08:44.185Z,3.27
2023-02-02T06:11:13.882Z,3.33
2023-02-02T06:13:41.380Z,3.30
2023-02-02T06:16:09.326Z,3.30
2023-02-02T06:18:37.544Z,3.27
2023-02-02T06:21:06.723Z,3.19
2023-02-02T06:23:35.281Z,3.22
2023-02-02T06:26:04.419Z,3.20
2023-02-02T06:28:33.200Z,3.19
2023-02-02T06:31:05.540Z,3.33
2023-02-02T06:33:33.076Z,3.19
2023-02-02T06:36:01.589Z,3.16
2023-02-02T06:38:29.343Z,3.16
2023-02-02T06:41:00.109Z,3.19
2023-02-02T06:43:27.671Z,3.28
2023-02-02T06:45:58.240Z,3.21
2023-02-02T06:48:25.948Z,3.26
2023-02-02T06:50:53.816Z,3.25
2023-02-02T06:53:23.060Z,3.26
2023-02-02T06:55:54.272Z,3.23
2023-02-02T06:58:21.724Z,3.26
2023-02-02T07:00:49.195Z,3.33
2023-02-02T07:03:18.340Z,3.30
2023-02-02T07:05:45.830Z,3.30
2023-02-02T07:08:13.334Z,3.30
2023-02-02T07:11:12.101Z,3.44
2023-02-02T07:13:28.971Z,3.33
2023-02-02T07:15:57.142Z,3.34
2023-02-02T07:18:26.077Z,3.32
2023-02-02T07:20:53.561Z,3.46
2023-02-02T07:23:21.015Z,3.39
2023-02-02T07:25:48.501Z,3.36
2023-02-02T07:28:15.959Z,3.31
2023-02-02T07:30:43.487Z,3.34
2023-02-02T07:33:11.022Z,3.35
2023-02-02T07:35:39.816Z,3.34
2023-02-02T07:38:07.300Z,3.32
2023-02-02T07:40:34.786Z,3.41
2023-02-02T07:43:02.522Z,3.63
2023-02-02T07:45:30.137Z,3.46
2023-02-02T07:47:57.989Z,3.38
2023-02-02T07:50:25.526Z,3.44
2023-02-02T07:52:54.557Z,3.43
2023-02-02T07:55:22.229Z,3.51
2023-02-02T07:57:49.691Z,3.43
2023-02-02T08:00:17.959Z,3.46
2023-02-02T08:02:45.457Z,3.47
2023-02-02T08:05:12.961Z,3.49
2023-02-02T08:07:40.423Z,3.47
2023-02-02T08:10:10.833Z,3.49
2023-02-02T08:12:38.297Z,3.60
2023-02-02T08:15:06.491Z,3.51
2023-02-02T08:17:34.007Z,3.64
2023-02-02T08:20:01.500Z,3.60
2023-02-02T08:22:28.997Z,3.57
2023-02-02T08:24:56.470Z,3.55
2023-02-02T08:27:25.260Z,3.65
2023-02-02T08:29:52.714Z,3.56
2023-02-02T08:32:20.194Z,3.64
2023-02-02T08:34:49.343Z,3.58
2023-02-02T08:37:16.860Z,3.64
2023-02-02T08:39:44.324Z,3.71
2023-02-02T08:42:11.831Z,3.79
2023-02-02T08:46:00.287Z,3.62
2023-02-02T08:47:30.083Z,3.65
2023-02-02T08:49:57.620Z,3.71
2023-02-02T08:52:25.942Z,3.75
2023-02-02T08:54:53.652Z,3.83
2023-02-02T08:57:21.215Z,3.93
2023-02-02T08:59:49.984Z,4.16
2023-02-02T09:02:18.648Z,4.08
2023-02-02T09:04:47.163Z,4.07
2023-02-02T09:07:14.663Z,4.09
2023-02-02T09:09:42.127Z,4.08
2023-02-02T09:12:09.612Z,4.12
2023-02-02T09:14:37.114Z,4.18
2023-02-02T09:17:05.929Z,4.21
2023-02-02T09:19:33.405Z,4.21
2023-02-02T09:22:00.929Z,4.31
2023-02-02T09:24:28.572Z,4.19
2023-02-02T09:26:56.158Z,4.32
2023-02-02T09:29:23.627Z,4.24
2023-02-02T09:31:51.314Z,4.45
2023-02-02T09:34:20.147Z,4.58
2023-02-02T09:36:47.748Z,4.53
2023-02-02T09:39:16.662Z,4.56
2023-02-02T09:42:09.397Z,4.61
2023-02-02T09:44:57.878Z,4.46
2023-02-02T09:47:34.290Z,4.46
2023-02-02T09:50:05.684Z,4.57
2023-02-02T09:52:39.072Z,4.39
2023-02-02T09:55:12.028Z,4.58
2023-02-02T09:57:40.443Z,4.41
2023-02-02T10:00:25.519Z,4.33
2023-02-02T10:02:57.858Z,4.26
2023-02-02T10:05:30.690Z,4.31
2023-02-02T10:08:02.556Z,4.39
2023-02-02T10:10:34.377Z,4.55
2023-02-02T10:13:07.721Z,4.60
2023-02-02T10:15:39.327Z,4.77
2023-02-02T10:18:12.886Z,4.83
2023-02-02T10:20:45.553Z,4.73
2023-02-02T10:23:20.175Z,4.66
2023-02-02T10:25:55.365Z,4.77
2023-02-02T10:28:31.032Z,4.82
2023-02-02T10:31:02.080Z,4.88
2023-02-02T10:33:35.293Z,4.99
2023-02-02T10:36:09.515Z,4.99
2023-02-02T10:38:40.102Z,4.97
2023-02-02T10:41:15.687Z,4.98
2023-02-02T10:44:05.101Z,5.02
2023-02-02T10:46:35.606Z,5.05
2023-02-02T10:49:15.261Z,4.94
2023-02-02T10:51:46.874Z,4.99
2023-02-02T10:54:26.028Z,5.10
2023-02-02T10:56:54.838Z,5.07
2023-02-02T10:59:25.718Z,5.08
2023-02-02T11:01:53.211Z,5.22
2023-02-02T11:04:38.858Z,5.27
2023-02-02T11:07:07.655Z,5.39
2023-02-02T11:09:40.758Z,4.99
2023-02-02T11:12:16.454Z,4.84
2023-02-02T11:14:47.151Z,4.72
2023-02-02T11:17:21.188Z,4.42
2023-02-02T11:19:50.475Z,4.59
2023-02-02T11:22:32.328Z,4.61
2023-02-02T11:25:01.683Z,4.67
2023-02-02T11:27:32.016Z,4.93
2023-02-02T11:30:00.365Z,4.79
2023-02-02T11:32:29.939Z,4.73
2023-02-02T11:35:16.833Z,4.76
2023-02-02T11:38:01.132Z,4.76
2023-02-02T11:40:31.864Z,4.87
2023-02-02T11:43:01.152Z,4.97
2023-02-02T11:45:33.364Z,5.05
2023-02-02T11:48:07.752Z,5.11
2023-02-02T11:50:36.269Z,5.01
2023-02-02T11:53:05.165Z,4.77
2023-02-02T11:55:32.955Z,4.56
2023-02-02T11:58:12.176Z,4.32
2023-02-02T12:00:47.897Z,4.26
2023-02-02T12:03:25.362Z,4.22
2023-02-02T12:05:52.961Z,4.09
2023-02-02T12:08:22.195Z,4.27
2023-02-02T12:10:56.371Z,4.21
2023-02-02T12:13:39.089Z,4.55
2023-02-02T12:16:13.119Z,4.63
2023-02-02T12:18:49.586Z,4.82
2023-02-02T12:21:21.594Z,4.91
2023-02-02T12:23:58.810Z,4.96
2023-02-02T12:26:28.896Z,5.13
2023-02-02T12:29:12.412Z,5.28
2023-02-02T12:31:48.496Z,5.29
2023-02-02T12:34:25.825Z,5.28
2023-02-02T12:37:03.091Z,5.25
2023-02-02T12:39:40.526Z,5.30
2023-02-02T12:42:29.666Z,5.29
2023-02-02T12:45:13.173Z,5.07
2023-02-02T12:47:50.614Z,4.95
2023-02-02T12:50:25.814Z,4.82
2023-02-02T12:53:07.035Z,4.41
2023-02-02T12:55:42.342Z,4.47
2023-02-02T12:58:17.820Z,4.42
2023-02-02T13:01:08.510Z,4.30
2023-02-02T13:03:45.243Z,4.12
2023-02-02T13:06:25.577Z,4.27
2023-02-02T13:08:57.223Z,4.21
2023-02-02T13:11:37.088Z,4.08
2023-02-02T13:14:09.677Z,4.02
2023-02-02T13:16:40.331Z,4.21
2023-02-02T13:19:09.005Z,4.11
2023-02-02T13:21:37.930Z,4.27
2023-02-02T13:24:06.845Z,4.27
2023-02-02T13:26:38.970Z,4.47
2023-02-02T13:29:09.299Z,4.57
2023-02-02T13:31:41.540Z,4.51
2023-02-02T13:34:17.261Z,4.66
2023-02-02T13:36:49.093Z,4.76
2023-02-02T13:39:19.751Z,4.89
2023-02-02T13:41:49.256Z,4.95
2023-02-02T13:44:18.877Z,5.08
2023-02-02T13:46:50.732Z,5.01
2023-02-02T13:49:20.916Z,5.05
2023-02-02T13:51:54.826Z,5.25
2023-02-02T13:55:11.733Z,5.19
2023-02-02T14:00:38.145Z,5.19
2023-02-02T14:03:07.000Z,5.13
2023-02-02T14:05:36.256Z,5.10
2023-02-02T14:08:08.343Z,5.03
2023-02-02T14:10:38.368Z,5.10
2023-02-02T14:13:41.026Z,5.16
2023-02-02T14:16:12.853Z,5.16
2023-02-02T14:18:54.966Z,5.11
2023-02-02T14:22:03.844Z,5.01
2023-02-02T14:24:44.419Z,4.91
2023-02-02T14:27:41.110Z,4.97
2023-02-02T14:30:29.179Z,5.09
2023-02-02T14:33:28.035Z,5.08
2023-02-02T14:36:01.765Z,5.07
2023-02-02T14:39:03.301Z,5.09
2023-02-02T14:42:10.491Z,5.36
2023-02-02T14:44:38.563Z,5.57
2023-02-02T14:47:44.005Z,5.55
2023-02-02T14:50:14.420Z,5.14
2023-02-02T14:52:42.049Z,5.23
2023-02-02T14:55:18.717Z,5.20
2023-02-02T14:57:54.556Z,5.19
2023-02-02T15:00:23.385Z,5.01
2023-02-02T15:02:53.779Z,4.97
2023-02-02T15:05:41.715Z,4.89
2023-02-02T15:08:15.970Z,4.86
2023-02-02T15:11:02.099Z,4.88
2023-02-02T15:13:37.378Z,4.83
2023-02-02T15:16:10.941Z,4.77
2023-02-02T15:18:44.402Z,4.90
2023-02-02T15:21:15.138Z,4.93
2023-02-02T15:23:44.896Z,4.74
2023-02-02T15:26:16.507Z,4.70
2023-02-02T15:28:48.170Z,4.71
2023-02-02T15:31:20.339Z,4.67
2023-02-02T15:33:51.557Z,4.50
2023-02-02T15:36:21.052Z,4.46
2023-02-02T15:38:50.800Z,4.59
2023-02-02T15:41:21.402Z,4.46
2023-02-02T15:43:48.900Z,4.26
2023-02-02T15:46:24.076Z,4.31
2023-02-02T15:49:33.929Z,4.25
2023-02-02T15:52:07.851Z,4.36
2023-02-02T15:54:38.014Z,4.36
2023-02-02T15:57:21.621Z,4.29
2023-02-02T15:59:49.416Z,4.21
2023-02-02T16:02:22.135Z,4.10
2023-02-02T16:04:50.984Z,4.45
2023-02-02T16:07:20.627Z,4.45
2023-02-02T16:09:48.233Z,4.22
2023-02-02T16:12:18.631Z,4.21
2023-02-02T16:14:47.913Z,4.26
2023-02-02T16:17:21.517Z,4.63
2023-02-02T16:19:51.696Z,4.09
2023-02-02T16:22:23.830Z,3.74
2023-02-02T16:24:54.117Z,3.76
2023-02-02T16:27:24.918Z,3.71
2023-02-02T16:29:52.645Z,3.49
2023-02-02T16:32:28.020Z,3.82
2023-02-02T16:34:57.099Z,3.15
2023-02-02T16:37:27.358Z,3.20
2023-02-02T16:39:55.877Z,3.79
2023-02-02T16:42:26.459Z,3.87
2023-02-02T16:44:54.638Z,3.88
2023-02-02T16:47:33.976Z,3.63
2023-02-02T16:50:32.699Z,3.01
2023-02-02T16:53:02.450Z,3.59
2023-02-02T16:55:47.815Z,3.31
2023-02-02T16:58:19.062Z,3.40
2023-02-02T17:01:12.377Z,2.64
2023-02-02T17:03:48.346Z,3.21
2023-02-02T17:06:17.171Z,2.81
2023-02-02T17:08:44.661Z,2.47
2023-02-02T17:11:21.285Z,2.32
2023-02-02T17:13:48.769Z,2.40
2023-02-02T17:16:19.814Z,2.33
2023-02-02T17:18:47.867Z,2.68
2023-02-02T17:21:19.279Z,2.40
2023-02-02T17:23:47.533Z,2.14
2023-02-02T17:26:17.016Z,2.09
2023-02-02T17:28:44.925Z,2.21
2023-02-02T17:31:14.390Z,2.47
2023-02-02T17:33:43.376Z,1.89
2023-02-02T17:36:11.835Z,1.70
2023-02-02T17:38:40.976Z,1.69
2023-02-02T17:41:08.464Z,1.61
2023-02-02T17:43:35.943Z,1.68
2023-02-02T17:46:04.444Z,1.61
2023-02-02T17:48:32.671Z,1.50
2023-02-02T17:51:03.100Z,1.52
2023-02-02T17:53:33.355Z,1.38
2023-02-02T17:56:02.384Z,1.33
2023-02-02T17:58:29.925Z,1.29
2023-02-02T18:00:59.180Z,1.34
2023-02-02T18:03:28.439Z,1.47
2023-02-02T18:05:57.563Z,1.73
2023-02-02T18:08:25.233Z,2.23
2023-02-02T18:10:52.708Z,1.89
2023-02-02T18:13:23.021Z,1.60
2023-02-02T18:15:51.374Z,1.46
2023-02-02T18:18:19.099Z,1.51
2023-02-02T18:20:47.963Z,2.20
2023-02-02T18:23:16.489Z,1.38
2023-02-02T18:25:44.417Z,1.39
2023-02-02T18:28:14.676Z,1.42
2023-02-02T18:30:45.872Z,1.36
2023-02-02T18:33:14.331Z,1.55
2023-02-02T18:35:42.789Z,1.82
2023-02-02T18:38:10.430Z,1.85
2023-02-02T18:40:38.361Z,1.78
2023-02-02T18:43:05.943Z,2.52
2023-02-02T18:45:33.423Z,2.62
2023-02-02T18:48:02.203Z,2.62
2023-02-02T18:50:29.731Z,1.95
2023-02-02T18:52:57.605Z,2.03
2023-02-02T18:55:25.583Z,2.08
2023-02-02T18:57:53.278Z,2.31
2023-02-02T19:00:22.451Z,2.54
2023-02-02T19:02:49.931Z,2.49
2023-02-02T19:05:36.276Z,2.32
2023-02-02T19:08:05.702Z,2.11
2023-02-02T19:10:33.232Z,2.05
2023-02-02T19:13:11.361Z,2.83
2023-02-02T19:15:41.753Z,2.79
2023-02-02T19:18:12.798Z,2.64
2023-02-02T19:20:41.814Z,2.68
2023-02-02T19:23:12.504Z,2.89
2023-02-02T19:25:40.807Z,3.14
2023-02-02T19:28:17.931Z,3.36
2023-02-02T19:30:45.946Z,3.25
2023-02-02T19:33:14.585Z,3.16
2023-02-02T19:35:45.598Z,3.10
2023-02-02T19:38:14.859Z,3.57
2023-02-02T19:40:43.387Z,3.83
2023-02-02T19:43:21.554Z,3.56
2023-02-02T19:45:49.187Z,3.79
2023-02-02T19:48:19.025Z,4.00
2023-02-02T19:50:47.881Z,3.81
2023-02-02T19:53:20.219Z,3.67
2023-02-02T19:55:48.089Z,3.79
2023-02-02T19:58:19.181Z,3.83
2023-02-02T20:00:47.497Z,3.61
2023-02-02T20:03:17.376Z,3.26
2023-02-02T20:05:45.968Z,3.30
2023-02-02T20:08:23.934Z,3.30
2023-02-02T20:10:52.037Z,3.16
2023-02-02T20:13:23.668Z,3.23
2023-02-02T20:15:52.504Z,3.46
2023-02-02T20:18:22.972Z,3.26
2023-02-02T20:20:53.095Z,2.96
2023-02-02T20:23:48.928Z,3.16
2023-02-02T20:26:23.362Z,3.07
2023-02-02T20:28:51.582Z,3.16
2023-02-02T20:31:21.112Z,3.24
2023-02-02T20:33:50.668Z,3.11
2023-02-02T20:36:28.941Z,3.28
2023-02-02T20:39:01.258Z,3.60
2023-02-02T20:41:28.735Z,3.86
2023-02-02T20:43:56.220Z,3.53
2023-02-02T20:46:23.707Z,3.53
2023-02-02T20:48:51.178Z,3.47
2023-02-02T20:51:18.676Z,3.39
2023-02-02T20:53:46.329Z,3.14
2023-02-02T20:56:15.113Z,3.48
2023-02-02T20:58:43.229Z,3.47
2023-02-02T21:01:10.819Z,3.50
2023-02-02T21:03:38.342Z,3.45
2023-02-02T21:06:05.969Z,3.81
2023-02-02T21:08:33.846Z,3.83
2023-02-02T21:11:01.314Z,3.68
2023-02-02T21:13:30.132Z,3.78
2023-02-02T21:15:57.623Z,3.72
2023-02-02T21:18:25.073Z,3.63
2023-02-02T21:20:52.844Z,4.18
2023-02-02T21:23:21.621Z,3.94
2023-02-02T21:25:49.143Z,4.01
2023-02-02T21:28:16.621Z,3.72
2023-02-02T21:30:45.805Z,3.93
2023-02-02T21:33:13.409Z,3.94
2023-02-02T21:35:40.892Z,4.08
2023-02-02T21:38:11.801Z,4.10
2023-02-02T21:40:39.830Z,3.91
2023-02-02T21:43:14.682Z,4.11
2023-02-02T21:45:45.414Z,4.17
2023-02-02T21:48:26.684Z,4.20
2023-02-02T21:50:54.173Z,4.30
2023-02-02T21:53:23.198Z,4.02
2023-02-02T21:55:53.069Z,4.27
2023-02-02T21:58:24.775Z,3.63
2023-02-02T22:00:54.330Z,4.02
2023-02-02T22:03:32.790Z,3.22
2023-02-02T22:06:09.021Z,3.77
2023-02-02T22:08:37.531Z,3.35
2023-02-02T22:11:05.317Z,3.62
2023-02-02T22:13:35.202Z,3.76
2023-02-02T22:16:04.386Z,2.82
2023-02-02T22:18:33.770Z,3.66
2023-02-02T22:21:01.243Z,3.38
2023-02-02T22:23:29.199Z,3.02
2023-02-02T22:25:57.752Z,3.68
2023-02-02T22:28:26.964Z,3.87
2023-02-02T22:30:55.652Z,4.09
2023-02-02T22:33:26.256Z,3.99
2023-02-02T22:35:54.129Z,4.19
2023-02-02T22:38:22.811Z,3.56
2023-02-02T22:40:51.546Z,4.21
2023-02-02T22:43:20.228Z,3.68
2023-02-02T22:45:48.386Z,4.13
2023-02-02T22:48:17.095Z,4.01
2023-02-02T22:50:45.949Z,3.17
2023-02-02T22:53:14.091Z,3.69
2023-02-02T22:55:41.588Z,3.53
2023-02-02T22:58:09.142Z,3.36
2023-02-02T23:00:37.650Z,3.10
2023-02-02T23:03:05.325Z,3.41
2023-02-02T23:05:32.887Z,3.78
2023-02-02T23:08:01.686Z,2.79
2023-02-02T23:10:35.062Z,2.80
2023-02-02T23:13:03.617Z,3.09
2023-02-02T23:15:31.538Z,3.64
2023-02-02T23:17:59.129Z,3.61
2023-02-02T23:20:26.953Z,3.80
2023-02-02T23:22:54.591Z,3.58
2023-02-02T23:25:23.388Z,3.84
2023-02-02T23:27:51.006Z,3.78
2023-02-02T23:30:21.116Z,3.28
2023-02-02T23:32:48.852Z,3.32
2023-02-02T23:35:16.808Z,2.94
2023-02-02T23:37:44.289Z,3.69
2023-02-02T23:40:13.068Z,3.34
2023-02-02T23:42:41.876Z,3.75
2023-02-02T23:45:10.465Z,3.74
2023-02-02T23:47:38.146Z,3.88
2023-02-02T23:50:07.615Z,3.97
2023-02-02T23:52:35.813Z,3.92
2023-02-02T23:55:04.746Z,3.31
2023-02-02T23:57:33.692Z,3.92
